createdAt,value
2023-02-28T00:01:38.226Z,15.10
2023-02-28T00:04:07.115Z,15.03
2023-02-28T00:06:35.946Z,15.70
2023-02-28T00:09:04.906Z,18.10
2023-02-28T00:11:35.048Z,22.43
2023-02-28T00:14:04.044Z,21.70
2023-02-28T00:16:32.825Z,19.47
2023-02-28T00:19:01.631Z,20.03
2023-02-28T00:21:30.769Z,18.47
2023-02-28T00:23:59.777Z,19.00
2023-02-28T00:26:28.611Z,20.47
2023-02-28T00:28:58.873Z,21.37
2023-02-28T00:31:28.159Z,20.47
2023-02-28T00:33:57.078Z,20.13
2023-02-28T00:36:25.796Z,21.37
2023-02-28T00:38:55.009Z,21.77
2023-02-28T00:41:23.808Z,20.53
2023-02-28T00:43:52.624Z,21.93
2023-02-28T00:46:22.780Z,20.63
2023-02-28T00:48:53.006Z,21.33
2023-02-28T00:51:21.821Z,20.40
2023-02-28T00:53:50.527Z,20.43
2023-02-28T00:56:19.386Z,23.50
2023-02-28T00:58:49.709Z,22.83
2023-02-28T01:01:18.540Z,22.83
2023-02-28T01:03:48.687Z,22.63
2023-02-28T01:06:17.474Z,20.23
2023-02-28T01:08:46.209Z,18.67
2023-02-28T01:11:18.342Z,18.37
2023-02-28T01:13:48.320Z,19.23
2023-02-28T01:16:17.261Z,17.47
2023-02-28T01:18:48.498Z,18.93
2023-02-28T01:21:19.287Z,19.00
2023-02-28T01:23:48.806Z,17.67
2023-02-28T01:26:19.364Z,18.77
2023-02-28T01:28:50.140Z,17.37
2023-02-28T01:31:19.327Z,18.17
2023-02-28T01:33:50.158Z,16.57
2023-02-28T01:36:21.244Z,16.27
2023-02-28T01:38:50.804Z,16.83
2023-02-28T01:41:21.880Z,17.03
2023-02-28T01:44:05.137Z,17.80
2023-02-28T01:46:36.429Z,17.47
2023-02-28T01:49:10.935Z,18.13
2023-02-28T01:51:46.704Z,16.67
2023-02-28T01:54:18.872Z,16.30
2023-02-28T01:56:54.353Z,16.47
2023-02-28T01:59:26.861Z,17.07
2023-02-28T02:01:56.388Z,17.93
2023-02-28T02:04:32.868Z,17.50
2023-02-28T02:07:02.013Z,17.77
2023-02-28T02:09:30.756Z,17.37
2023-02-28T02:12:01.620Z,17.10
2023-02-28T02:14:44.962Z,17.23
2023-02-28T02:17:25.849Z,17.47
2023-02-28T02:20:35.930Z,17.07
2023-02-28T02:23:20.527Z,17.83
2023-02-28T02:25:55.515Z,19.30
2023-02-28T02:28:58.606Z,19.53
2023-02-28T02:31:49.975Z,19.43
2023-02-28T02:34:40.599Z,19.20
2023-02-28T02:37:18.387Z,19.27
2023-02-28T02:39:55.268Z,19.80
2023-02-28T02:42:30.345Z,20.27
2023-02-28T02:45:06.974Z,19.93
2023-02-28T02:47:38.025Z,19.77
2023-02-28T02:50:15.849Z,19.07
2023-02-28T02:52:51.177Z,19.47
2023-02-28T02:55:22.684Z,20.63
2023-02-28T02:57:56.768Z,20.70
2023-02-28T03:00:32.640Z,19.37
2023-02-28T03:03:03.417Z,20.87
2023-02-28T03:05:41.529Z,19.13
2023-02-28T03:08:10.312Z,21.63
2023-02-28T03:10:41.388Z,21.20
2023-02-28T03:13:47.661Z,20.53
2023-02-28T03:16:35.688Z,19.97
2023-02-28T03:19:46.470Z,19.97
2023-02-28T03:22:32.292Z,20.30
2023-02-28T03:25:14.484Z,21.17
2023-02-28T03:27:51.838Z,21.40
2023-02-28T03:30:26.960Z,22.90
2023-02-28T03:33:00.495Z,23.67
2023-02-28T03:35:34.642Z,23.80
2023-02-28T03:38:10.571Z,26.27
2023-02-28T03:40:41.138Z,23.67
2023-02-28T03:43:14.385Z,24.23
2023-02-28T03:45:45.481Z,24.43
2023-02-28T03:48:19.417Z,20.87
2023-02-28T03:50:51.709Z,21.57
2023-02-28T03:53:27.193Z,22.10
2023-02-28T03:56:00.190Z,21.07
2023-02-28T03:58:34.181Z,20.87
2023-02-28T04:01:09.982Z,18.77
2023-02-28T04:03:39.695Z,19.20
2023-02-28T04:06:15.066Z,19.47
2023-02-28T04:08:45.250Z,19.03
2023-02-28T04:11:22.059Z,19.17
2023-02-28T04:13:50.803Z,19.43
2023-02-28T04:16:33.801Z,17.57
2023-02-28T04:19:05.997Z,18.93
2023-02-28T04:21:36.932Z,19.37
2023-02-28T04:24:07.927Z,17.53
2023-02-28T04:26:38.166Z,18.33
2023-02-28T04:29:08.219Z,18.43
2023-02-28T04:31:37.090Z,19.13
2023-02-28T04:34:05.841Z,20.63
2023-02-28T04:36:34.859Z,21.07
2023-02-28T04:39:05.021Z,20.10
2023-02-28T04:41:36.230Z,22.20
2023-02-28T04:44:05.354Z,22.87
2023-02-28T04:46:34.182Z,22.03
2023-02-28T04:49:03.034Z,22.67
2023-02-28T04:51:32.086Z,22.53
2023-02-28T04:54:00.859Z,21.97
2023-02-28T04:56:29.645Z,22.50
2023-02-28T04:58:59.843Z,21.93
2023-02-28T05:01:30.722Z,21.83
2023-02-28T05:04:02.389Z,21.43
2023-02-28T05:06:33.531Z,21.77
2023-02-28T05:09:08.733Z,21.90
2023-02-28T05:11:39.308Z,22.17
2023-02-28T05:14:13.076Z,21.83
2023-02-28T05:16:41.940Z,21.47
2023-02-28T05:19:10.787Z,22.07
2023-02-28T05:21:41.379Z,21.87
2023-02-28T05:24:12.974Z,22.43
2023-02-28T05:26:43.657Z,21.37
2023-02-28T05:29:13.779Z,21.30
2023-02-28T05:31:42.537Z,20.23
2023-02-28T05:34:12.272Z,18.40
2023-02-28T05:36:41.466Z,18.40
2023-02-28T05:39:13.557Z,18.53
2023-02-28T05:41:43.980Z,19.20
2023-02-28T05:44:14.478Z,19.77
2023-02-28T05:46:43.287Z,20.07
2023-02-28T05:49:12.317Z,18.53
2023-02-28T05:51:41.255Z,18.63
2023-02-28T05:54:11.554Z,19.00
2023-02-28T05:56:44.896Z,20.10
2023-02-28T05:59:15.376Z,20.37
2023-02-28T06:01:49.193Z,19.87
2023-02-28T06:04:32.335Z,22.63
2023-02-28T06:07:01.229Z,21.73
2023-02-28T06:09:30.095Z,23.10
2023-02-28T06:12:00.269Z,24.07
2023-02-28T06:14:32.113Z,24.00
2023-02-28T06:17:01.773Z,25.47
2023-02-28T06:19:31.144Z,26.67
2023-02-28T06:22:00.763Z,25.37
2023-02-28T06:24:32.724Z,23.47
2023-02-28T06:27:05.941Z,23.23
2023-02-28T06:29:40.772Z,24.17
2023-02-28T06:32:10.470Z,23.17
2023-02-28T06:34:39.308Z,23.33
2023-02-28T06:37:08.143Z,21.83
2023-02-28T06:39:37.410Z,23.23
2023-02-28T06:42:06.280Z,22.03
2023-02-28T06:44:37.253Z,22.47
2023-02-28T06:47:07.402Z,21.43
2023-02-28T06:49:38.110Z,21.17
2023-02-28T06:52:06.927Z,19.50
2023-02-28T06:54:35.753Z,20.17
2023-02-28T06:57:04.939Z,19.67
2023-02-28T06:59:36.127Z,19.93
2023-02-28T07:02:07.411Z,20.17
2023-02-28T07:04:39.156Z,19.10
2023-02-28T07:07:07.991Z,18.67
2023-02-28T07:09:36.876Z,19.13
2023-02-28T07:12:06.298Z,17.37
2023-02-28T07:14:38.323Z,19.33
2023-02-28T07:17:09.419Z,19.23
2023-02-28T07:19:38.222Z,17.87
2023-02-28T07:22:07.153Z,18.67
2023-02-28T07:24:36.207Z,17.93
2023-02-28T07:27:05.015Z,17.23
2023-02-28T07:29:33.843Z,16.87
2023-02-28T07:32:04.700Z,16.57
2023-02-28T07:34:33.578Z,15.87
2023-02-28T07:37:04.772Z,18.37
2023-02-28T07:39:33.559Z,16.47
2023-02-28T07:42:04.792Z,16.40
2023-02-28T07:44:35.559Z,17.37
2023-02-28T07:47:06.086Z,16.97
2023-02-28T07:49:34.965Z,16.80
2023-02-28T07:52:04.059Z,16.93
2023-02-28T07:54:32.910Z,17.20
2023-02-28T07:57:01.942Z,15.43
2023-02-28T07:59:32.367Z,15.27
2023-02-28T08:02:01.750Z,16.20
2023-02-28T08:04:33.979Z,14.50
2023-02-28T08:07:02.702Z,14.40
2023-02-28T08:09:32.400Z,13.80
2023-02-28T08:12:01.150Z,13.87
2023-02-28T08:14:29.953Z,14.87
2023-02-28T08:16:58.760Z,16.00
2023-02-28T08:19:27.738Z,13.93
2023-02-28T08:21:58.480Z,15.23
2023-02-28T08:24:27.268Z,19.07
2023-02-28T08:26:56.713Z,15.80
2023-02-28T08:29:25.683Z,16.70
2023-02-28T08:31:54.685Z,15.90
2023-02-28T08:34:24.070Z,15.93
2023-02-28T08:36:53.864Z,15.97
2023-02-28T08:39:23.977Z,15.97
2023-02-28T08:41:59.096Z,14.27
2023-02-28T08:44:35.274Z,12.80
2023-02-28T08:47:04.339Z,13.73
2023-02-28T08:49:33.092Z,14.50
2023-02-28T08:52:02.089Z,14.13
2023-02-28T08:54:34.220Z,14.77
2023-02-28T08:57:03.111Z,14.00
2023-02-28T08:59:32.268Z,13.60
2023-02-28T09:02:01.082Z,13.60
2023-02-28T09:04:31.711Z,13.87
2023-02-28T09:07:00.453Z,11.03
2023-02-28T09:09:29.262Z,10.63
2023-02-28T09:11:59.888Z,11.87
2023-02-28T09:14:28.634Z,12.60
2023-02-28T09:16:57.446Z,10.43
2023-02-28T09:19:26.180Z,10.33
2023-02-28T09:21:54.976Z,9.57
2023-02-28T09:24:23.716Z,8.70
2023-02-28T09:27:03.810Z,10.47
2023-02-28T09:29:36.072Z,9.30
2023-02-28T09:32:06.752Z,8.73
2023-02-28T09:34:38.067Z,6.80
2023-02-28T09:37:06.959Z,8.83
2023-02-28T09:39:35.669Z,10.90
2023-02-28T09:42:05.621Z,9.80
2023-02-28T09:44:39.535Z,9.90
2023-02-28T09:47:16.474Z,9.73
2023-02-28T09:49:48.898Z,8.63
2023-02-28T09:52:20.795Z,9.83
2023-02-28T09:54:49.661Z,9.90
2023-02-28T09:57:27.683Z,9.07
2023-02-28T10:00:11.320Z,9.90
2023-02-28T10:02:59.164Z,9.43
2023-02-28T10:05:32.657Z,8.50
2023-02-28T10:08:13.162Z,8.77
2023-02-28T10:10:45.068Z,9.03
2023-02-28T10:13:22.027Z,9.27
2023-02-28T10:15:56.119Z,8.67
2023-02-28T10:18:29.526Z,7.67
2023-02-28T10:20:59.178Z,8.43
2023-02-28T10:23:30.799Z,7.63
2023-02-28T10:26:03.213Z,8.27
2023-02-28T10:28:33.073Z,7.97
2023-02-28T10:31:04.220Z,9.03
2023-02-28T10:33:36.186Z,8.70
2023-02-28T10:36:07.776Z,9.30
2023-02-28T10:38:39.045Z,8.93
2023-02-28T10:41:09.759Z,9.50
2023-02-28T10:43:39.293Z,8.23
2023-02-28T10:46:16.402Z,9.03
2023-02-28T10:48:50.878Z,8.90
2023-02-28T10:51:21.676Z,8.13
2023-02-28T10:54:01.125Z,8.87
2023-02-28T10:56:32.026Z,8.70
2023-02-28T10:59:02.809Z,8.80
2023-02-28T11:01:41.788Z,8.70
2023-02-28T11:04:22.862Z,10.27
2023-02-28T11:07:00.425Z,8.67
2023-02-28T11:09:35.852Z,9.10
2023-02-28T11:12:08.485Z,9.63
2023-02-28T11:14:45.062Z,9.30
2023-02-28T11:17:23.029Z,8.63
2023-02-28T11:19:55.082Z,9.37
2023-02-28T11:22:30.058Z,9.33
2023-02-28T11:25:02.382Z,8.90
2023-02-28T11:27:50.454Z,9.03
2023-02-28T11:30:28.667Z,8.60
2023-02-28T11:32:59.084Z,8.67
2023-02-28T11:35:35.684Z,8.07
2023-02-28T11:38:04.793Z,8.77
2023-02-28T11:40:43.214Z,8.70
2023-02-28T11:43:31.300Z,8.80
2023-02-28T11:46:16.408Z,8.47
2023-02-28T11:48:58.153Z,9.50
2023-02-28T11:51:34.276Z,8.83
2023-02-28T11:54:35.284Z,8.60
2023-02-28T11:57:21.462Z,9.63
2023-02-28T11:59:59.097Z,7.47
2023-02-28T12:02:35.093Z,8.00
2023-02-28T12:05:19.399Z,8.50
2023-02-28T12:08:00.361Z,8.00
2023-02-28T12:10:32.244Z,8.10
2023-02-28T12:13:15.165Z,8.77
2023-02-28T12:16:00.668Z,8.10
2023-02-28T12:19:01.188Z,7.33
2023-02-28T12:21:39.353Z,8.23
2023-02-28T12:24:26.651Z,8.67
2023-02-28T12:26:57.896Z,7.73
2023-02-28T12:29:30.460Z,7.70
2023-02-28T12:32:06.085Z,8.00
2023-02-28T12:34:39.217Z,7.80
2023-02-28T12:37:14.873Z,7.63
2023-02-28T12:39:50.878Z,7.60
2023-02-28T12:42:26.350Z,6.70
2023-02-28T12:44:59.456Z,7.47
2023-02-28T12:47:28.293Z,7.00
2023-02-28T12:50:01.760Z,6.80
2023-02-28T12:52:41.094Z,7.03
2023-02-28T12:55:17.432Z,7.03
2023-02-28T12:57:56.017Z,7.00
2023-02-28T13:00:31.062Z,7.63
2023-02-28T13:03:33.574Z,6.93
2023-02-28T13:06:14.238Z,6.97
2023-02-28T13:09:16.302Z,7.63
2023-02-28T13:11:47.441Z,6.87
2023-02-28T13:14:27.082Z,7.30
2023-02-28T13:17:03.605Z,7.90
2023-02-28T13:19:35.367Z,6.97
2023-02-28T13:22:05.063Z,7.60
2023-02-28T13:24:50.538Z,7.00
2023-02-28T13:27:35.418Z,7.57
2023-02-28T13:30:42.507Z,7.43
2023-02-28T13:33:29.813Z,7.00
2023-02-28T13:36:24.885Z,7.50
2023-02-28T13:39:01.002Z,7.03
2023-02-28T13:41:47.951Z,7.27
2023-02-28T13:44:19.945Z,7.47
2023-02-28T13:47:25.577Z,7.90
2023-02-28T13:49:55.942Z,7.03
2023-02-28T13:52:26.369Z,7.23
2023-02-28T13:55:28.492Z,7.90
2023-02-28T13:58:21.185Z,6.80
2023-02-28T14:01:14.471Z,7.47
2023-02-28T14:04:00.992Z,7.10
2023-02-28T14:06:33.546Z,8.90
2023-02-28T14:09:08.380Z,8.10
2023-02-28T14:11:39.145Z,8.37
2023-02-28T14:14:09.980Z,7.80
2023-02-28T14:16:43.365Z,8.40
2023-02-28T14:19:17.745Z,8.47
2023-02-28T14:22:00.847Z,8.67
2023-02-28T14:25:07.129Z,8.93
2023-02-28T14:27:45.572Z,7.93
2023-02-28T14:30:28.566Z,8.23
2023-02-28T14:33:07.668Z,8.13
2023-02-28T14:35:53.193Z,8.50
2023-02-28T14:38:27.307Z,7.77
2023-02-28T14:40:59.277Z,8.50
2023-02-28T14:43:30.373Z,8.23
2023-02-28T14:46:01.204Z,9.13
2023-02-28T14:48:30.709Z,7.77
2023-02-28T14:51:01.631Z,8.23
2023-02-28T14:53:37.612Z,8.33
2023-02-28T14:56:07.829Z,8.00
2023-02-28T14:58:36.848Z,8.13
2023-02-28T15:01:06.657Z,7.67
2023-02-28T15:03:37.065Z,8.13
2023-02-28T15:06:08.201Z,7.70
2023-02-28T15:08:38.424Z,7.87
2023-02-28T15:11:09.724Z,8.30
2023-02-28T15:13:42.158Z,8.33
2023-02-28T15:16:14.393Z,8.00
2023-02-28T15:18:50.314Z,8.27
2023-02-28T15:21:22.130Z,8.00
2023-02-28T15:23:59.424Z,8.70
2023-02-28T15:26:32.248Z,7.47
2023-02-28T15:29:03.555Z,8.27
2023-02-28T15:31:54.042Z,7.97
2023-02-28T15:34:37.066Z,8.43
2023-02-28T15:37:24.627Z,7.90
2023-02-28T15:39:56.135Z,8.20
2023-02-28T15:42:29.421Z,8.03
2023-02-28T15:44:58.337Z,8.40
2023-02-28T15:47:29.618Z,8.53
2023-02-28T15:50:02.589Z,9.13
2023-02-28T15:52:39.610Z,8.53
2023-02-28T15:55:19.897Z,8.30
2023-02-28T15:57:51.682Z,8.90
2023-02-28T16:00:23.203Z,8.60
2023-02-28T16:02:53.183Z,8.40
2023-02-28T16:05:31.575Z,8.37
2023-02-28T16:08:02.704Z,10.17
2023-02-28T16:10:33.112Z,7.90
2023-02-28T16:13:04.084Z,7.77
2023-02-28T16:15:42.492Z,8.20
2023-02-28T16:18:13.537Z,7.10
2023-02-28T16:20:42.579Z,7.80
2023-02-28T16:23:11.383Z,7.27
2023-02-28T16:25:44.588Z,7.47
2023-02-28T16:28:22.047Z,8.10
2023-02-28T16:30:53.089Z,12.37
2023-02-28T16:33:21.970Z,25.73
2023-02-28T16:35:50.957Z,16.93
2023-02-28T16:38:20.126Z,10.63
2023-02-28T16:40:52.425Z,9.93
2023-02-28T16:43:24.381Z,44.07
2023-02-28T16:45:58.084Z,64.07
2023-02-28T16:48:27.545Z,43.37
2023-02-28T16:50:56.357Z,25.50
2023-02-28T16:53:25.085Z,30.37
2023-02-28T16:55:55.570Z,29.23
2023-02-28T16:58:26.587Z,29.90
2023-02-28T17:00:55.478Z,26.67
2023-02-28T17:03:34.260Z,40.60
2023-02-28T17:06:03.382Z,37.83
2023-02-28T17:08:33.251Z,75.07
2023-02-28T17:11:03.718Z,51.50
2023-02-28T17:13:33.660Z,54.73
2023-02-28T17:16:03.232Z,54.53
2023-02-28T17:18:34.827Z,59.57
2023-02-28T17:21:03.690Z,46.17
2023-02-28T17:23:32.431Z,38.30
2023-02-28T17:26:01.209Z,38.90
2023-02-28T17:28:31.671Z,33.87
2023-02-28T17:31:00.441Z,26.17
2023-02-28T17:33:29.298Z,23.47
2023-02-28T17:35:58.226Z,23.50
2023-02-28T17:38:26.973Z,37.40
2023-02-28T17:40:58.174Z,29.67
2023-02-28T17:43:27.497Z,36.07
2023-02-28T17:45:59.254Z,34.03
2023-02-28T17:48:28.613Z,31.73
2023-02-28T17:50:57.375Z,22.37
2023-02-28T17:53:28.122Z,22.97
2023-02-28T17:55:56.899Z,22.27
2023-02-28T17:58:26.319Z,48.93
2023-02-28T18:00:55.732Z,48.67
2023-02-28T18:03:27.013Z,47.17
2023-02-28T18:05:57.830Z,40.20
2023-02-28T18:08:26.909Z,32.77
2023-02-28T18:10:55.769Z,23.57
2023-02-28T18:13:24.562Z,15.53
2023-02-28T18:15:53.745Z,15.93
2023-02-28T18:18:22.617Z,15.43
2023-02-28T18:20:53.290Z,16.37
2023-02-28T18:23:22.156Z,16.37
2023-02-28T18:25:50.957Z,18.47
2023-02-28T18:28:19.824Z,19.93
2023-02-28T18:30:48.601Z,19.17
2023-02-28T18:33:17.801Z,19.53
2023-02-28T18:35:46.601Z,22.27
2023-02-28T18:38:19.463Z,19.90
2023-02-28T18:40:55.099Z,20.90
2023-02-28T18:43:24.186Z,20.03
2023-02-28T18:45:53.047Z,18.90
2023-02-28T18:48:23.373Z,17.77
2023-02-28T18:50:52.877Z,17.70
2023-02-28T18:53:23.875Z,17.63
2023-02-28T18:55:52.814Z,19.10
2023-02-28T18:58:21.604Z,18.30
2023-02-28T19:00:50.774Z,18.93
2023-02-28T19:03:20.167Z,19.93
2023-02-28T19:05:50.184Z,18.67
2023-02-28T19:08:19.794Z,19.93
2023-02-28T19:10:49.919Z,20.17
2023-02-28T19:13:20.773Z,20.50
2023-02-28T19:15:49.665Z,21.00
2023-02-28T19:18:18.478Z,24.00
2023-02-28T19:20:47.729Z,29.17
2023-02-28T19:23:16.620Z,44.93
2023-02-28T19:25:45.336Z,40.73
2023-02-28T19:28:15.599Z,41.57
2023-02-28T19:30:48.943Z,42.93
2023-02-28T19:33:17.841Z,51.20
2023-02-28T19:35:46.876Z,55.37
2023-02-28T19:38:16.440Z,52.83
2023-02-28T19:40:45.433Z,50.67
2023-02-28T19:43:15.694Z,45.53
2023-02-28T19:45:44.653Z,44.73
2023-02-28T19:48:13.458Z,41.20
2023-02-28T19:50:42.301Z,39.70
2023-02-28T19:53:11.040Z,39.97
2023-02-28T19:55:39.950Z,39.23
2023-02-28T19:58:08.756Z,35.00
2023-02-28T20:00:38.903Z,35.47
2023-02-28T20:03:07.915Z,34.40
2023-02-28T20:05:37.971Z,31.97
2023-02-28T20:08:07.012Z,33.87
2023-02-28T20:10:36.009Z,36.37
2023-02-28T20:13:04.954Z,36.87
2023-02-28T20:15:34.036Z,37.07
2023-02-28T20:18:05.083Z,38.70
2023-02-28T20:20:36.465Z,41.83
2023-02-28T20:23:05.367Z,38.53
2023-02-28T20:25:34.170Z,43.07
2023-02-28T20:28:03.033Z,46.03
2023-02-28T20:30:31.859Z,48.33
2023-02-28T20:33:00.753Z,47.17
2023-02-28T20:35:33.778Z,45.00
2023-02-28T20:38:02.573Z,43.40
2023-02-28T20:40:31.621Z,42.33
2023-02-28T20:43:00.481Z,42.33
2023-02-28T20:45:29.460Z,43.03
2023-02-28T20:47:58.289Z,45.00
2023-02-28T20:50:27.290Z,47.07
2023-02-28T20:52:57.571Z,45.70
2023-02-28T20:55:26.512Z,45.87
2023-02-28T20:57:55.253Z,43.97
2023-02-28T21:00:26.532Z,45.60
2023-02-28T21:02:55.568Z,44.40
2023-02-28T21:05:30.561Z,41.77
2023-02-28T21:08:01.144Z,42.97
2023-02-28T21:10:29.926Z,43.13
2023-02-28T21:12:58.822Z,45.97
2023-02-28T21:15:27.717Z,44.37
2023-02-28T21:17:56.690Z,46.07
2023-02-28T21:20:25.609Z,44.63
2023-02-28T21:22:54.487Z,43.57
2023-02-28T21:25:24.730Z,43.90
2023-02-28T21:27:55.672Z,44.70
2023-02-28T21:30:24.640Z,43.53
2023-02-28T21:32:53.397Z,43.17
2023-02-28T21:35:22.144Z,39.80
2023-02-28T21:37:51.095Z,40.40
2023-02-28T21:40:19.982Z,41.33
2023-02-28T21:42:50.278Z,41.27
2023-02-28T21:45:19.212Z,40.67
2023-02-28T21:47:48.026Z,40.00
2023-02-28T21:50:16.929Z,40.83
2023-02-28T21:52:46.163Z,42.60
2023-02-28T21:55:14.958Z,43.53
2023-02-28T21:57:43.925Z,44.27
2023-02-28T22:00:17.085Z,44.90
2023-02-28T22:02:46.002Z,45.43
2023-02-28T22:05:14.942Z,42.77
2023-02-28T22:07:45.933Z,43.97
2023-02-28T22:10:14.685Z,45.60
2023-02-28T22:12:43.676Z,44.87
2023-02-28T22:15:14.738Z,46.67
2023-02-28T22:17:43.540Z,42.57
2023-02-28T22:20:13.875Z,41.73
2023-02-28T22:22:42.666Z,40.73
2023-02-28T22:25:14.353Z,41.67
2023-02-28T22:27:43.164Z,42.53
2023-02-28T22:30:16.314Z,40.20
2023-02-28T22:32:45.148Z,36.30
2023-02-28T22:35:13.915Z,38.83
2023-02-28T22:37:42.845Z,37.63
2023-02-28T22:40:12.981Z,36.27
2023-02-28T22:42:41.841Z,39.30
2023-02-28T22:45:11.352Z,38.20
2023-02-28T22:47:41.625Z,38.83
2023-02-28T22:50:13.319Z,39.93
2023-02-28T22:52:42.745Z,41.10
2023-02-28T22:55:12.355Z,41.47
2023-02-28T22:57:41.273Z,40.00
2023-02-28T23:00:15.466Z,41.53
2023-02-28T23:02:46.849Z,40.93
2023-02-28T23:05:16.293Z,38.10
2023-02-28T23:07:45.253Z,37.40
2023-02-28T23:10:17.092Z,42.40
2023-02-28T23:12:53.889Z,42.63
2023-02-28T23:15:23.283Z,43.73
2023-02-28T23:17:53.449Z,42.77
2023-02-28T23:20:22.706Z,41.33
2023-02-28T23:22:52.321Z,43.97
2023-02-28T23:25:21.714Z,43.73
2023-02-28T23:27:50.642Z,41.80
2023-02-28T23:30:19.668Z,40.43
2023-02-28T23:32:48.767Z,39.83
2023-02-28T23:35:19.476Z,38.00
2023-02-28T23:37:48.238Z,37.47
2023-02-28T23:40:18.181Z,38.10
2023-02-28T23:42:51.819Z,36.03
2023-02-28T23:45:21.205Z,35.80
2023-02-28T23:47:50.390Z,37.13
2023-02-28T23:50:20.792Z,35.50
2023-02-28T23:52:49.570Z,34.63
2023-02-28T23:55:20.601Z,34.80
2023-02-28T23:57:49.451Z,34.70
